sensor_id;sensor_type;location;lat;lon;timestamp;temperature;humidity
71039;SHT30;58692;43.212;27.908;2022-09-09T00:03:49;21.55;65.75
71039;SHT30;58692;43.212;27.908;2022-09-09T00:11:43;21.44;66.14
71039;SHT30;58692;43.212;27.908;2022-09-09T00:14:18;21.54;66.00
71039;SHT30;58692;43.212;27.908;2022-09-09T00:16:53;21.49;65.71
71039;SHT30;58692;43.212;27.908;2022-09-09T00:22:20;21.46;65.62
71039;SHT30;58692;43.212;27.908;2022-09-09T00:24:49;21.39;65.26
71039;SHT30;58692;43.212;27.908;2022-09-09T00:27:29;21.41;65.49
71039;SHT30;58692;43.212;27.908;2022-09-09T00:30:12;21.44;65.27
71039;SHT30;58692;43.212;27.908;2022-09-09T00:32:39;21.49;65.45
71039;SHT30;58692;43.212;27.908;2022-09-09T00:37:45;21.52;65.36
71039;SHT30;58692;43.212;27.908;2022-09-09T00:42:58;21.48;65.64
71039;SHT30;58692;43.212;27.908;2022-09-09T00:45:41;21.44;65.55
71039;SHT30;58692;43.212;27.908;2022-09-09T00:48:11;21.44;65.85
71039;SHT30;58692;43.212;27.908;2022-09-09T00:50:54;21.44;65.62
71039;SHT30;58692;43.212;27.908;2022-09-09T00:53:32;21.41;65.67
71039;SHT30;58692;43.212;27.908;2022-09-09T00:56:14;21.42;65.59
71039;SHT30;58692;43.212;27.908;2022-09-09T00:58:43;21.44;65.49
71039;SHT30;58692;43.212;27.908;2022-09-09T01:01:17;21.37;65.83
71039;SHT30;58692;43.212;27.908;2022-09-09T01:03:51;21.34;65.75
71039;SHT30;58692;43.212;27.908;2022-09-09T01:06:34;21.35;65.74
71039;SHT30;58692;43.212;27.908;2022-09-09T01:17:17;21.34;65.84
71039;SHT30;58692;43.212;27.908;2022-09-09T01:25:18;21.22;66.32
71039;SHT30;58692;43.212;27.908;2022-09-09T01:27:46;21.21;66.36
71039;SHT30;58692;43.212;27.908;2022-09-09T01:30:16;21.20;66.29
71039;SHT30;58692;43.212;27.908;2022-09-09T01:32:44;21.15;66.58
71039;SHT30;58692;43.212;27.908;2022-09-09T01:35:15;21.15;66.55
71039;SHT30;58692;43.212;27.908;2022-09-09T01:37:44;21.07;66.83
71039;SHT30;58692;43.212;27.908;2022-09-09T01:40:10;21.05;66.93
71039;SHT30;58692;43.212;27.908;2022-09-09T01:42:36;21.07;66.78
71039;SHT30;58692;43.212;27.908;2022-09-09T01:45:02;21.08;66.76
71039;SHT30;58692;43.212;27.908;2022-09-09T01:47:28;21.04;67.07
71039;SHT30;58692;43.212;27.908;2022-09-09T01:49:53;21.03;67.08
71039;SHT30;58692;43.212;27.908;2022-09-09T01:52:19;21.00;66.96
71039;SHT30;58692;43.212;27.908;2022-09-09T01:54:44;20.95;67.03
71039;SHT30;58692;43.212;27.908;2022-09-09T02:02:27;20.88;67.50
71039;SHT30;58692;43.212;27.908;2022-09-09T02:05:11;20.85;67.56
71039;SHT30;58692;43.212;27.908;2022-09-09T02:07:40;20.85;67.69
71039;SHT30;58692;43.212;27.908;2022-09-09T02:10:21;20.85;67.81
71039;SHT30;58692;43.212;27.908;2022-09-09T02:12:52;20.70;68.41
71039;SHT30;58692;43.212;27.908;2022-09-09T02:15:26;20.70;68.51
71039;SHT30;58692;43.212;27.908;2022-09-09T02:17:55;20.59;68.75
71039;SHT30;58692;43.212;27.908;2022-09-09T02:20:24;20.53;68.89
71039;SHT30;58692;43.212;27.908;2022-09-09T02:22:52;20.54;68.85
71039;SHT30;58692;43.212;27.908;2022-09-09T02:25:21;20.54;68.89
71039;SHT30;58692;43.212;27.908;2022-09-09T02:27:49;20.54;68.94
71039;SHT30;58692;43.212;27.908;2022-09-09T02:30:16;20.50;69.08
71039;SHT30;58692;43.212;27.908;2022-09-09T02:32:42;20.49;69.23
71039;SHT30;58692;43.212;27.908;2022-09-09T02:35:12;20.47;69.40
71039;SHT30;58692;43.212;27.908;2022-09-09T02:37:42;20.39;69.53
71039;SHT30;58692;43.212;27.908;2022-09-09T02:40:10;20.34;69.65
71039;SHT30;58692;43.212;27.908;2022-09-09T02:42:45;20.36;69.84
71039;SHT30;58692;43.212;27.908;2022-09-09T02:45:14;20.33;70.13
71039;SHT30;58692;43.212;27.908;2022-09-09T02:50:23;20.44;69.62
71039;SHT30;58692;43.212;27.908;2022-09-09T02:55:39;20.40;69.92
71039;SHT30;58692;43.212;27.908;2022-09-09T02:58:10;20.40;70.05
71039;SHT30;58692;43.212;27.908;2022-09-09T03:00:38;20.34;70.24
71039;SHT30;58692;43.212;27.908;2022-09-09T03:03:05;20.34;70.24
71039;SHT30;58692;43.212;27.908;2022-09-09T03:05:31;20.39;70.18
71039;SHT30;58692;43.212;27.908;2022-09-09T03:07:57;20.39;70.25
71039;SHT30;58692;43.212;27.908;2022-09-09T03:10:23;20.36;70.32
71039;SHT30;58692;43.212;27.908;2022-09-09T03:12:48;20.25;70.65
71039;SHT30;58692;43.212;27.908;2022-09-09T03:15:14;20.29;70.57
71039;SHT30;58692;43.212;27.908;2022-09-09T03:17:40;20.32;70.55
71039;SHT30;58692;43.212;27.908;2022-09-09T03:20:06;20.32;70.59
71039;SHT30;58692;43.212;27.908;2022-09-09T03:22:32;20.29;70.67
71039;SHT30;58692;43.212;27.908;2022-09-09T03:24:58;20.32;70.72
71039;SHT30;58692;43.212;27.908;2022-09-09T03:27:23;20.32;70.65
71039;SHT30;58692;43.212;27.908;2022-09-09T03:29:49;20.29;70.91
71039;SHT30;58692;43.212;27.908;2022-09-09T03:32:17;20.26;70.94
71039;SHT30;58692;43.212;27.908;2022-09-09T03:34:43;20.22;71.10
71039;SHT30;58692;43.212;27.908;2022-09-09T03:37:08;20.30;71.00
71039;SHT30;58692;43.212;27.908;2022-09-09T03:39:34;20.20;71.35
71039;SHT30;58692;43.212;27.908;2022-09-09T03:42:00;20.20;71.27
71039;SHT30;58692;43.212;27.908;2022-09-09T03:44:29;20.30;71.19
71039;SHT30;58692;43.212;27.908;2022-09-09T03:46:55;20.29;71.25
71039;SHT30;58692;43.212;27.908;2022-09-09T03:49:21;20.23;71.50
71039;SHT30;58692;43.212;27.908;2022-09-09T03:51:48;20.28;71.39
71039;SHT30;58692;43.212;27.908;2022-09-09T03:54:13;20.33;71.17
71039;SHT30;58692;43.212;27.908;2022-09-09T03:56:39;20.32;71.35
71039;SHT30;58692;43.212;27.908;2022-09-09T03:59:06;20.20;71.89
71039;SHT30;58692;43.212;27.908;2022-09-09T04:01:34;20.16;72.02
71039;SHT30;58692;43.212;27.908;2022-09-09T04:04:00;20.26;71.90
71039;SHT30;58692;43.212;27.908;2022-09-09T04:06:28;20.34;71.56
71039;SHT30;58692;43.212;27.908;2022-09-09T04:08:55;20.33;71.66
71039;SHT30;58692;43.212;27.908;2022-09-09T04:11:21;20.51;71.16
71039;SHT30;58692;43.212;27.908;2022-09-09T04:13:47;20.85;70.15
71039;SHT30;58692;43.212;27.908;2022-09-09T04:16:13;21.08;69.48
71039;SHT30;58692;43.212;27.908;2022-09-09T04:18:38;21.38;68.63
71039;SHT30;58692;43.212;27.908;2022-09-09T04:21:05;21.65;67.87
71039;SHT30;58692;43.212;27.908;2022-09-09T04:23:32;21.95;66.98
71039;SHT30;58692;43.212;27.908;2022-09-09T04:26:01;22.23;65.98
71039;SHT30;58692;43.212;27.908;2022-09-09T04:28:29;22.53;65.17
71039;SHT30;58692;43.212;27.908;2022-09-09T04:30:56;22.90;64.12
71039;SHT30;58692;43.212;27.908;2022-09-09T04:33:24;23.12;63.41
71039;SHT30;58692;43.212;27.908;2022-09-09T04:35:52;23.49;62.42
71039;SHT30;58692;43.212;27.908;2022-09-09T04:38:18;23.72;61.88
71039;SHT30;58692;43.212;27.908;2022-09-09T04:40:46;23.90;61.25
71039;SHT30;58692;43.212;27.908;2022-09-09T04:43:12;23.94;60.99
71039;SHT30;58692;43.212;27.908;2022-09-09T04:45:39;24.35;60.20
71039;SHT30;58692;43.212;27.908;2022-09-09T04:48:06;24.61;59.61
71039;SHT30;58692;43.212;27.908;2022-09-09T04:50:31;24.61;59.53
71039;SHT30;58692;43.212;27.908;2022-09-09T04:53:00;24.91;58.80
71039;SHT30;58692;43.212;27.908;2022-09-09T04:55:26;24.72;59.35
71039;SHT30;58692;43.212;27.908;2022-09-09T04:57:52;24.89;59.04
71039;SHT30;58692;43.212;27.908;2022-09-09T05:00:17;25.12;58.46
71039;SHT30;58692;43.212;27.908;2022-09-09T05:02:44;25.35;58.02
71039;SHT30;58692;43.212;27.908;2022-09-09T05:05:09;25.54;57.54
71039;SHT30;58692;43.212;27.908;2022-09-09T05:07:36;25.63;57.12
71039;SHT30;58692;43.212;27.908;2022-09-09T05:10:02;25.93;56.73
71039;SHT30;58692;43.212;27.908;2022-09-09T05:12:30;26.04;56.23
71039;SHT30;58692;43.212;27.908;2022-09-09T05:14:56;25.56;57.47
71039;SHT30;58692;43.212;27.908;2022-09-09T05:17:22;25.60;57.69
71039;SHT30;58692;43.212;27.908;2022-09-09T05:19:47;25.76;57.47
71039;SHT30;58692;43.212;27.908;2022-09-09T05:22:19;26.11;56.68
71039;SHT30;58692;43.212;27.908;2022-09-09T05:24:45;25.54;58.05
71039;SHT30;58692;43.212;27.908;2022-09-09T05:27:11;25.50;58.69
71039;SHT30;58692;43.212;27.908;2022-09-09T05:29:37;26.01;57.09
71039;SHT30;58692;43.212;27.908;2022-09-09T05:32:04;26.40;56.29
71039;SHT30;58692;43.212;27.908;2022-09-09T05:34:30;26.81;55.36
71039;SHT30;58692;43.212;27.908;2022-09-09T05:36:55;27.12;54.82
71039;SHT30;58692;43.212;27.908;2022-09-09T05:39:21;26.95;54.81
71039;SHT30;58692;43.212;27.908;2022-09-09T05:41:46;26.69;55.68
71039;SHT30;58692;43.212;27.908;2022-09-09T05:44:12;26.53;55.84
71039;SHT30;58692;43.212;27.908;2022-09-09T05:46:38;26.79;55.78
71039;SHT30;58692;43.212;27.908;2022-09-09T05:49:04;26.65;56.14
71039;SHT30;58692;43.212;27.908;2022-09-09T05:51:31;26.37;56.94
71039;SHT30;58692;43.212;27.908;2022-09-09T05:53:56;26.79;56.18
71039;SHT30;58692;43.212;27.908;2022-09-09T05:56:27;27.26;55.05
71039;SHT30;58692;43.212;27.908;2022-09-09T05:58:53;27.30;55.67
71039;SHT30;58692;43.212;27.908;2022-09-09T06:01:21;27.17;55.92
71039;SHT30;58692;43.212;27.908;2022-09-09T06:03:49;26.81;57.31
71039;SHT30;58692;43.212;27.908;2022-09-09T06:06:18;26.93;56.71
71039;SHT30;58692;43.212;27.908;2022-09-09T06:08:46;26.42;58.02
71039;SHT30;58692;43.212;27.908;2022-09-09T06:11:15;26.49;58.22
71039;SHT30;58692;43.212;27.908;2022-09-09T06:13:41;27.06;57.14
71039;SHT30;58692;43.212;27.908;2022-09-09T06:16:09;27.34;56.88
71039;SHT30;58692;43.212;27.908;2022-09-09T06:18:37;27.46;56.68
71039;SHT30;58692;43.212;27.908;2022-09-09T06:21:05;27.09;57.70
71039;SHT30;58692;43.212;27.908;2022-09-09T06:23:33;27.10;57.64
71039;SHT30;58692;43.212;27.908;2022-09-09T06:26:06;27.34;57.02
71039;SHT30;58692;43.212;27.908;2022-09-09T06:28:33;27.24;57.06
71039;SHT30;58692;43.212;27.908;2022-09-09T06:31:01;27.03;58.26
71039;SHT30;58692;43.212;27.908;2022-09-09T06:33:31;27.10;58.00
71039;SHT30;58692;43.212;27.908;2022-09-09T06:35:57;27.51;57.07
71039;SHT30;58692;43.212;27.908;2022-09-09T06:38:23;27.85;56.72
71039;SHT30;58692;43.212;27.908;2022-09-09T06:40:58;27.14;57.97
71039;SHT30;58692;43.212;27.908;2022-09-09T06:43:26;27.29;57.78
71039;SHT30;58692;43.212;27.908;2022-09-09T06:46:01;26.44;60.92
71039;SHT30;58692;43.212;27.908;2022-09-09T06:48:27;27.47;58.18
71039;SHT30;58692;43.212;27.908;2022-09-09T06:51:05;28.48;55.81
71039;SHT30;58692;43.212;27.908;2022-09-09T06:53:32;28.35;56.03
71039;SHT30;58692;43.212;27.908;2022-09-09T06:58:42;27.68;58.10
71039;SHT30;58692;43.212;27.908;2022-09-09T07:01:11;28.15;57.26
71039;SHT30;58692;43.212;27.908;2022-09-09T07:03:38;28.86;55.83
71039;SHT30;58692;43.212;27.908;2022-09-09T07:06:04;28.70;55.98
71039;SHT30;58692;43.212;27.908;2022-09-09T07:08:30;28.95;55.64
71039;SHT30;58692;43.212;27.908;2022-09-09T07:11:07;28.08;58.09
71039;SHT30;58692;43.212;27.908;2022-09-09T07:13:33;28.34;57.18
71039;SHT30;58692;43.212;27.908;2022-09-09T07:16:15;28.17;57.84
71039;SHT30;58692;43.212;27.908;2022-09-09T07:18:42;27.78;58.77
71039;SHT30;58692;43.212;27.908;2022-09-09T07:21:10;28.65;56.75
71039;SHT30;58692;43.212;27.908;2022-09-09T07:23:37;28.82;56.28
71039;SHT30;58692;43.212;27.908;2022-09-09T07:26:09;28.26;57.62
71039;SHT30;58692;43.212;27.908;2022-09-09T07:28:35;27.83;58.84
71039;SHT30;58692;43.212;27.908;2022-09-09T07:31:01;28.86;56.28
71039;SHT30;58692;43.212;27.908;2022-09-09T07:33:28;28.19;58.14
71039;SHT30;58692;43.212;27.908;2022-09-09T07:36:04;28.84;56.89
71039;SHT30;58692;43.212;27.908;2022-09-09T07:38:31;28.29;57.70
71039;SHT30;58692;43.212;27.908;2022-09-09T07:41:09;28.86;55.56
71039;SHT30;58692;43.212;27.908;2022-09-09T07:43:48;28.60;55.93
71039;SHT30;58692;43.212;27.908;2022-09-09T07:46:26;27.77;57.20
71039;SHT30;58692;43.212;27.908;2022-09-09T07:48:54;28.24;56.96
71039;SHT30;58692;43.212;27.908;2022-09-09T07:51:23;28.63;56.72
71039;SHT30;58692;43.212;27.908;2022-09-09T07:53:55;28.96;55.58
71039;SHT30;58692;43.212;27.908;2022-09-09T07:56:23;29.35;54.35
71039;SHT30;58692;43.212;27.908;2022-09-09T07:58:50;29.17;52.10
71039;SHT30;58692;43.212;27.908;2022-09-09T08:01:21;29.53;51.52
71039;SHT30;58692;43.212;27.908;2022-09-09T08:03:53;28.97;49.51
71039;SHT30;58692;43.212;27.908;2022-09-09T08:06:19;29.00;45.10
71039;SHT30;58692;43.212;27.908;2022-09-09T08:08:49;28.04;48.68
71039;SHT30;58692;43.212;27.908;2022-09-09T08:11:15;29.13;48.44
71039;SHT30;58692;43.212;27.908;2022-09-09T08:13:42;29.82;48.82
71039;SHT30;58692;43.212;27.908;2022-09-09T08:16:27;28.73;45.05
71039;SHT30;58692;43.212;27.908;2022-09-09T08:18:54;29.11;44.20
71039;SHT30;58692;43.212;27.908;2022-09-09T08:21:43;29.93;40.36
71039;SHT30;58692;43.212;27.908;2022-09-09T08:30:38;30.26;44.97
71039;SHT30;58692;43.212;27.908;2022-09-09T08:33:24;29.24;50.07
71039;SHT30;58692;43.212;27.908;2022-09-09T08:36:24;29.49;49.30
71039;SHT30;58692;43.212;27.908;2022-09-09T08:38:53;29.60;50.14
71039;SHT30;58692;43.212;27.908;2022-09-09T08:41:38;29.97;50.10
71039;SHT30;58692;43.212;27.908;2022-09-09T08:52:29;29.09;54.41
71039;SHT30;58692;43.212;27.908;2022-09-09T08:55:01;29.20;53.43
71039;SHT30;58692;43.212;27.908;2022-09-09T08:57:28;28.72;54.72
71039;SHT30;58692;43.212;27.908;2022-09-09T08:59:58;29.17;53.77
71039;SHT30;58692;43.212;27.908;2022-09-09T09:10:50;29.40;53.08
71039;SHT30;58692;43.212;27.908;2022-09-09T09:13:44;29.27;53.62
71039;SHT30;58692;43.212;27.908;2022-09-09T09:16:27;29.20;53.80
71039;SHT30;58692;43.212;27.908;2022-09-09T09:18:58;30.15;51.60
71039;SHT30;58692;43.212;27.908;2022-09-09T09:24:13;29.98;51.59
71039;SHT30;58692;43.212;27.908;2022-09-09T09:26:45;29.93;52.04
71039;SHT30;58692;43.212;27.908;2022-09-09T09:29:13;29.10;53.87
71039;SHT30;58692;43.212;27.908;2022-09-09T09:31:48;29.31;53.52
71039;SHT30;58692;43.212;27.908;2022-09-09T09:34:19;29.51;53.19
71039;SHT30;58692;43.212;27.908;2022-09-09T09:36:54;29.81;52.67
71039;SHT30;58692;43.212;27.908;2022-09-09T09:39:26;30.31;50.86
71039;SHT30;58692;43.212;27.908;2022-09-09T09:41:53;29.40;53.08
71039;SHT30;58692;43.212;27.908;2022-09-09T09:44:29;29.65;52.68
71039;SHT30;58692;43.212;27.908;2022-09-09T09:49:38;28.83;54.06
71039;SHT30;58692;43.212;27.908;2022-09-09T09:52:21;29.19;53.30
71039;SHT30;58692;43.212;27.908;2022-09-09T09:54:50;29.58;52.80
71039;SHT30;58692;43.212;27.908;2022-09-09T09:57:23;29.75;52.68
71039;SHT30;58692;43.212;27.908;2022-09-09T10:00:17;30.13;51.66
71039;SHT30;58692;43.212;27.908;2022-09-09T10:03:26;28.96;54.22
71039;SHT30;58692;43.212;27.908;2022-09-09T10:05:53;29.65;52.96
71039;SHT30;58692;43.212;27.908;2022-09-09T10:08:19;29.72;53.29
71039;SHT30;58692;43.212;27.908;2022-09-09T10:11:17;29.84;52.98
71039;SHT30;58692;43.212;27.908;2022-09-09T10:14:08;28.96;54.52
71039;SHT30;58692;43.212;27.908;2022-09-09T10:16:41;29.35;53.19
71039;SHT30;58692;43.212;27.908;2022-09-09T10:19:31;30.12;52.23
71039;SHT30;58692;43.212;27.908;2022-09-09T10:25:20;29.61;53.07
71039;SHT30;58692;43.212;27.908;2022-09-09T10:32:49;29.80;53.46
71039;SHT30;58692;43.212;27.908;2022-09-09T10:35:26;29.20;54.21
71039;SHT30;58692;43.212;27.908;2022-09-09T10:38:22;29.09;53.67
71039;SHT30;58692;43.212;27.908;2022-09-09T10:41:05;29.21;54.58
71039;SHT30;58692;43.212;27.908;2022-09-09T10:46:23;28.65;55.83
71039;SHT30;58692;43.212;27.908;2022-09-09T10:57:33;29.50;54.18
71039;SHT30;58692;43.212;27.908;2022-09-09T11:00:05;28.95;55.62
71039;SHT30;58692;43.212;27.908;2022-09-09T11:02:58;28.46;56.99
71039;SHT30;58692;43.212;27.908;2022-09-09T11:05:27;28.82;55.64
71039;SHT30;58692;43.212;27.908;2022-09-09T11:08:03;29.03;55.14
71039;SHT30;58692;43.212;27.908;2022-09-09T11:10:40;29.38;54.04
71039;SHT30;58692;43.212;27.908;2022-09-09T11:13:13;30.05;52.75
71039;SHT30;58692;43.212;27.908;2022-09-09T11:15:45;29.58;54.02
71039;SHT30;58692;43.212;27.908;2022-09-09T11:18:19;29.60;54.18
71039;SHT30;58692;43.212;27.908;2022-09-09T11:20:53;28.78;55.93
71039;SHT30;58692;43.212;27.908;2022-09-09T11:23:26;29.02;54.61
71039;SHT30;58692;43.212;27.908;2022-09-09T11:25:57;29.16;54.82
71039;SHT30;58692;43.212;27.908;2022-09-09T11:38:51;28.41;57.65
71039;SHT30;58692;43.212;27.908;2022-09-09T11:41:18;28.29;58.34
71039;SHT30;58692;43.212;27.908;2022-09-09T11:43:49;27.91;58.44
71039;SHT30;58692;43.212;27.908;2022-09-09T11:46:20;28.22;58.39
71039;SHT30;58692;43.212;27.908;2022-09-09T11:48:59;28.11;59.03
71039;SHT30;58692;43.212;27.908;2022-09-09T11:51:28;27.58;60.24
71039;SHT30;58692;43.212;27.908;2022-09-09T11:53:55;27.85;59.69
71039;SHT30;58692;43.212;27.908;2022-09-09T11:56:32;28.07;59.40
71039;SHT30;58692;43.212;27.908;2022-09-09T11:59:01;27.88;60.12
71039;SHT30;58692;43.212;27.908;2022-09-09T12:01:35;27.50;61.12
71039;SHT30;58692;43.212;27.908;2022-09-09T12:07:05;27.24;61.73
71039;SHT30;58692;43.212;27.908;2022-09-09T12:09:52;27.42;60.82
71039;SHT30;58692;43.212;27.908;2022-09-09T12:12:28;28.21;59.62
71039;SHT30;58692;43.212;27.908;2022-09-09T12:15:19;28.31;59.51
71039;SHT30;58692;43.212;27.908;2022-09-09T12:17:55;28.41;58.61
71039;SHT30;58692;43.212;27.908;2022-09-09T12:22:51;27.42;60.33
71039;SHT30;58692;43.212;27.908;2022-09-09T12:28:30;27.53;58.93
71039;SHT30;58692;43.212;27.908;2022-09-09T12:31:20;27.33;60.34
71039;SHT30;58692;43.212;27.908;2022-09-09T12:33:48;27.03;61.27
71039;SHT30;58692;43.212;27.908;2022-09-09T12:36:22;26.83;61.60
71039;SHT30;58692;43.212;27.908;2022-09-09T12:41:56;26.73;62.43
71039;SHT30;58692;43.212;27.908;2022-09-09T12:44:24;26.53;63.02
71039;SHT30;58692;43.212;27.908;2022-09-09T12:46:51;26.13;64.35
71039;SHT30;58692;43.212;27.908;2022-09-09T12:51:51;26.18;63.70
71039;SHT30;58692;43.212;27.908;2022-09-09T12:54:21;26.16;64.17
71039;SHT30;58692;43.212;27.908;2022-09-09T12:56:47;26.16;63.88
71039;SHT30;58692;43.212;27.908;2022-09-09T12:59:37;26.13;64.43
71039;SHT30;58692;43.212;27.908;2022-09-09T13:02:19;25.98;64.74
71039;SHT30;58692;43.212;27.908;2022-09-09T13:05:16;26.05;64.09
71039;SHT30;58692;43.212;27.908;2022-09-09T13:07:47;25.69;64.75
71039;SHT30;58692;43.212;27.908;2022-09-09T13:10:15;25.50;65.70
71039;SHT30;58692;43.212;27.908;2022-09-09T13:12:45;25.54;65.60
71039;SHT30;58692;43.212;27.908;2022-09-09T13:15:19;25.51;66.20
71039;SHT30;58692;43.212;27.908;2022-09-09T13:17:51;25.51;66.02
71039;SHT30;58692;43.212;27.908;2022-09-09T13:20:19;25.53;65.76
71039;SHT30;58692;43.212;27.908;2022-09-09T13:22:47;25.26;66.16
71039;SHT30;58692;43.212;27.908;2022-09-09T13:27:52;25.63;65.24
71039;SHT30;58692;43.212;27.908;2022-09-09T13:35:31;25.36;66.24
71039;SHT30;58692;43.212;27.908;2022-09-09T13:37:58;25.36;67.01
71039;SHT30;58692;43.212;27.908;2022-09-09T13:40:25;25.60;66.63
71039;SHT30;58692;43.212;27.908;2022-09-09T13:42:54;25.56;66.76
71039;SHT30;58692;43.212;27.908;2022-09-09T13:45:24;25.29;67.45
71039;SHT30;58692;43.212;27.908;2022-09-09T13:47:53;25.43;67.28
71039;SHT30;58692;43.212;27.908;2022-09-09T13:50:27;25.29;66.54
71039;SHT30;58692;43.212;27.908;2022-09-09T13:52:55;25.26;67.73
71039;SHT30;58692;43.212;27.908;2022-09-09T13:55:25;25.42;67.10
71039;SHT30;58692;43.212;27.908;2022-09-09T13:57:53;25.32;67.78
71039;SHT30;58692;43.212;27.908;2022-09-09T14:00:20;25.16;67.48
71039;SHT30;58692;43.212;27.908;2022-09-09T14:02:47;25.40;67.16
71039;SHT30;58692;43.212;27.908;2022-09-09T14:05:13;25.45;67.06
71039;SHT30;58692;43.212;27.908;2022-09-09T14:07:39;25.30;67.78
71039;SHT30;58692;43.212;27.908;2022-09-09T14:10:07;25.19;67.97
71039;SHT30;58692;43.212;27.908;2022-09-09T14:12:33;25.12;67.83
71039;SHT30;58692;43.212;27.908;2022-09-09T14:14:58;25.11;68.04
71039;SHT30;58692;43.212;27.908;2022-09-09T14:17:25;24.99;68.60
71039;SHT30;58692;43.212;27.908;2022-09-09T14:19:54;25.02;67.96
71039;SHT30;58692;43.212;27.908;2022-09-09T14:22:21;24.72;68.62
71039;SHT30;58692;43.212;27.908;2022-09-09T14:24:47;24.82;68.11
71039;SHT30;58692;43.212;27.908;2022-09-09T14:27:13;24.68;68.31
71039;SHT30;58692;43.212;27.908;2022-09-09T14:29:38;24.82;68.19
71039;SHT30;58692;43.212;27.908;2022-09-09T14:32:04;24.86;68.01
71039;SHT30;58692;43.212;27.908;2022-09-09T14:34:29;24.86;68.19
71039;SHT30;58692;43.212;27.908;2022-09-09T14:36:58;24.79;68.41
71039;SHT30;58692;43.212;27.908;2022-09-09T14:39:23;24.72;68.59
71039;SHT30;58692;43.212;27.908;2022-09-09T14:41:49;24.74;68.92
71039;SHT30;58692;43.212;27.908;2022-09-09T14:44:14;24.82;68.16
71039;SHT30;58692;43.212;27.908;2022-09-09T14:46:41;24.82;68.45
71039;SHT30;58692;43.212;27.908;2022-09-09T14:49:08;24.81;68.29
71039;SHT30;58692;43.212;27.908;2022-09-09T14:51:36;24.88;68.47
71039;SHT30;58692;43.212;27.908;2022-09-09T14:54:02;24.75;68.41
71039;SHT30;58692;43.212;27.908;2022-09-09T14:56:31;24.65;68.83
71039;SHT30;58692;43.212;27.908;2022-09-09T14:59:00;24.72;68.65
71039;SHT30;58692;43.212;27.908;2022-09-09T15:01:26;24.68;68.95
71039;SHT30;58692;43.212;27.908;2022-09-09T15:03:57;24.60;69.07
71039;SHT30;58692;43.212;27.908;2022-09-09T15:06:24;24.51;68.72
71039;SHT30;58692;43.212;27.908;2022-09-09T15:08:52;24.30;69.72
71039;SHT30;58692;43.212;27.908;2022-09-09T15:11:19;24.55;68.17
71039;SHT30;58692;43.212;27.908;2022-09-09T15:13:45;24.64;68.05
71039;SHT30;58692;43.212;27.908;2022-09-09T15:16:15;24.64;68.16
71039;SHT30;58692;43.212;27.908;2022-09-09T15:18:41;24.63;68.06
71039;SHT30;58692;43.212;27.908;2022-09-09T15:21:11;24.60;68.44
71039;SHT30;58692;43.212;27.908;2022-09-09T15:23:37;24.57;67.61
71039;SHT30;58692;43.212;27.908;2022-09-09T15:26:03;24.60;66.90
71039;SHT30;58692;43.212;27.908;2022-09-09T15:28:31;24.47;67.05
71039;SHT30;58692;43.212;27.908;2022-09-09T15:30:58;24.38;65.97
71039;SHT30;58692;43.212;27.908;2022-09-09T15:33:24;24.30;66.52
71039;SHT30;58692;43.212;27.908;2022-09-09T15:35:50;24.34;66.60
71039;SHT30;58692;43.212;27.908;2022-09-09T15:38:17;24.31;66.59
71039;SHT30;58692;43.212;27.908;2022-09-09T15:40:43;24.44;65.85
71039;SHT30;58692;43.212;27.908;2022-09-09T15:43:09;24.38;66.52
71039;SHT30;58692;43.212;27.908;2022-09-09T15:45:36;24.33;67.30
71039;SHT30;58692;43.212;27.908;2022-09-09T15:48:03;24.31;67.59
71039;SHT30;58692;43.212;27.908;2022-09-09T15:50:29;24.30;67.54
71039;SHT30;58692;43.212;27.908;2022-09-09T15:52:56;24.21;67.87
71039;SHT30;58692;43.212;27.908;2022-09-09T15:55:22;24.13;68.57
71039;SHT30;58692;43.212;27.908;2022-09-09T15:57:49;24.20;68.51
71039;SHT30;58692;43.212;27.908;2022-09-09T16:00:17;24.25;67.69
71039;SHT30;58692;43.212;27.908;2022-09-09T16:02:43;24.14;67.71
71039;SHT30;58692;43.212;27.908;2022-09-09T16:05:09;24.12;67.77
71039;SHT30;58692;43.212;27.908;2022-09-09T16:07:34;24.20;67.88
71039;SHT30;58692;43.212;27.908;2022-09-09T16:10:01;24.20;67.64
71039;SHT30;58692;43.212;27.908;2022-09-09T16:12:26;24.07;67.88
71039;SHT30;58692;43.212;27.908;2022-09-09T16:14:52;24.09;67.80
71039;SHT30;58692;43.212;27.908;2022-09-09T16:17:17;24.10;67.98
71039;SHT30;58692;43.212;27.908;2022-09-09T16:19:45;24.07;68.22
71039;SHT30;58692;43.212;27.908;2022-09-09T16:22:11;24.07;68.34
71039;SHT30;58692;43.212;27.908;2022-09-09T16:24:36;24.03;68.18
71039;SHT30;58692;43.212;27.908;2022-09-09T16:27:02;23.94;68.63
71039;SHT30;58692;43.212;27.908;2022-09-09T16:29:28;23.90;68.95
71039;SHT30;58692;43.212;27.908;2022-09-09T16:31:54;23.84;68.94
71039;SHT30;58692;43.212;27.908;2022-09-09T16:34:20;23.96;68.95
71039;SHT30;58692;43.212;27.908;2022-09-09T16:36:48;23.96;69.26
71039;SHT30;58692;43.212;27.908;2022-09-09T16:39:16;23.89;69.06
71039;SHT30;58692;43.212;27.908;2022-09-09T16:41:43;23.89;69.23
71039;SHT30;58692;43.212;27.908;2022-09-09T16:44:11;23.87;69.09
71039;SHT30;58692;43.212;27.908;2022-09-09T16:46:45;23.89;69.29
71039;SHT30;58692;43.212;27.908;2022-09-09T16:49:18;23.79;69.55
71039;SHT30;58692;43.212;27.908;2022-09-09T16:51:46;23.89;69.22
71039;SHT30;58692;43.212;27.908;2022-09-09T16:54:13;23.93;69.72
71039;SHT30;58692;43.212;27.908;2022-09-09T16:56:42;23.94;69.89
71039;SHT30;58692;43.212;27.908;2022-09-09T16:59:14;23.92;70.38
71039;SHT30;58692;43.212;27.908;2022-09-09T17:01:41;23.80;71.04
71039;SHT30;58692;43.212;27.908;2022-09-09T17:04:09;23.73;71.56
71039;SHT30;58692;43.212;27.908;2022-09-09T17:06:36;23.65;72.38
71039;SHT30;58692;43.212;27.908;2022-09-09T17:09:06;23.73;72.34
71039;SHT30;58692;43.212;27.908;2022-09-09T17:11:32;23.74;72.54
71039;SHT30;58692;43.212;27.908;2022-09-09T17:13:58;23.72;72.39
71039;SHT30;58692;43.212;27.908;2022-09-09T17:16:27;23.67;72.50
71039;SHT30;58692;43.212;27.908;2022-09-09T17:18:54;23.74;72.51
71039;SHT30;58692;43.212;27.908;2022-09-09T17:21:23;23.73;72.60
71039;SHT30;58692;43.212;27.908;2022-09-09T17:23:50;23.77;72.90
71039;SHT30;58692;43.212;27.908;2022-09-09T17:26:18;23.83;72.84
71039;SHT30;58692;43.212;27.908;2022-09-09T17:28:44;23.86;73.33
71039;SHT30;58692;43.212;27.908;2022-09-09T17:31:13;23.77;73.65
71039;SHT30;58692;43.212;27.908;2022-09-09T17:33:43;23.73;73.84
71039;SHT30;58692;43.212;27.908;2022-09-09T17:36:11;23.69;74.41